Terminal Aerodrome Forecast
Issued by NWS Wilmington, NC

Home | Current Version | Previous Version | Text Only | Print | Product List | Glossary On
Versions: 1 2 3 4 5 6 7 8 9 10 11 12 13 14 15 16 17 18 19 20 21 22 23 24 25 26 27 28 29
000
FTUS42 KILM 210643 AAA
TAFFLO
TAF AMD
KFLO 210643Z 2107/2206 16004KT 2SM BR SCT003
      TEMPO 2107/2109 1/2SM FG BKN003
     FM210900 17003KT 1/2SM FG OVC003
     FM211400 19004KT 3SM BR BKN003
     FM211500 19006KT 6SM BR BKN008
     FM211600 20008KT P6SM SCT015 BKN025
     FM211900 19008KT P6SM SCT030 BKN070
     FM220200 18005KT P6SM SCT015 BKN050=

USA.gov is the U.S. government's official web portal to all federal, state and local government web resources and services.